createdAt,value
2023-05-26T04:07:47.301Z,101533.41
2023-05-26T04:10:15.001Z,101532.84
2023-05-26T04:12:44.484Z,101533.66
2023-05-26T04:15:12.076Z,101536.91
2023-05-26T04:17:39.700Z,101535.66
2023-05-26T04:20:11.473Z,101532.88
2023-05-26T04:22:39.777Z,101542.13
2023-05-26T04:25:11.237Z,101542.34
2023-05-26T04:27:57.562Z,101537.25
2023-05-26T04:30:40.436Z,101534.06
2023-05-26T04:33:26.710Z,101532.97
2023-05-26T04:36:25.168Z,101536.91
2023-05-26T04:38:52.866Z,101540.16
2023-05-26T04:41:20.549Z,101542.19
2023-05-26T04:43:48.358Z,101547.63
2023-05-26T04:46:16.545Z,101545.16
2023-05-26T04:48:44.068Z,101543.53
2023-05-26T04:51:11.410Z,101546.41
2023-05-26T04:53:38.821Z,101555.50
2023-05-26T04:56:08.588Z,101551.19
2023-05-26T04:58:41.729Z,101556.09
2023-05-26T05:01:11.243Z,101560.03
2023-05-26T05:03:52.164Z,101562.06
2023-05-26T05:06:28.555Z,101561.59
2023-05-26T05:08:57.115Z,101565.84
2023-05-26T05:11:26.897Z,101562.19
2023-05-26T05:13:54.266Z,101557.31
2023-05-26T05:16:24.816Z,101558.84
2023-05-26T05:18:54.237Z,101561.75
2023-05-26T05:21:23.715Z,101560.25
2023-05-26T05:23:54.516Z,101567.09
2023-05-26T05:26:23.683Z,101568.09
2023-05-26T05:28:52.143Z,101567.25
2023-05-26T05:31:45.829Z,101567.19
2023-05-26T05:34:13.346Z,101562.88
2023-05-26T05:36:41.481Z,101559.00
2023-05-26T05:39:09.877Z,101557.75
2023-05-26T05:41:37.689Z,101561.66
2023-05-26T05:44:05.663Z,101562.19
2023-05-26T05:46:33.598Z,101566.34
2023-05-26T05:49:36.576Z,101558.88
2023-05-26T05:52:05.813Z,101563.41
2023-05-26T05:54:33.221Z,101561.84
2023-05-26T05:57:02.093Z,101564.69
2023-05-26T05:59:29.590Z,101564.94
2023-05-26T06:01:57.000Z,101559.66
2023-05-26T06:04:26.696Z,101566.94
2023-05-26T06:06:54.656Z,101567.69
2023-05-26T06:09:22.383Z,101564.91
2023-05-26T06:11:50.981Z,101565.25
2023-05-26T06:14:20.924Z,101569.75
2023-05-26T06:16:49.289Z,101568.94
2023-05-26T06:19:16.905Z,101570.31
2023-05-26T06:21:44.681Z,101566.72
2023-05-26T06:24:12.958Z,101566.56
2023-05-26T06:26:40.438Z,101573.97
2023-05-26T06:29:13.080Z,101583.06
2023-05-26T06:31:42.948Z,101583.34
2023-05-26T06:34:14.968Z,101586.97
2023-05-26T06:36:42.914Z,101587.88
2023-05-26T06:39:10.406Z,101589.31
2023-05-26T06:41:38.273Z,101591.00
2023-05-26T06:44:06.173Z,101594.25
2023-05-26T06:46:33.966Z,101592.38
2023-05-26T06:49:01.311Z,101593.88
2023-05-26T06:51:54.465Z,101602.88
2023-05-26T06:54:21.973Z,101605.34
2023-05-26T06:56:51.111Z,101599.72
2023-05-26T06:59:21.012Z,101605.59
2023-05-26T07:01:48.876Z,101605.34
2023-05-26T07:04:16.259Z,101602.34
2023-05-26T07:06:47.863Z,101608.88
2023-05-26T07:09:20.905Z,101605.34
2023-05-26T07:12:00.128Z,101603.22
2023-05-26T07:15:02.893Z,101609.09
2023-05-26T07:17:31.758Z,101611.16
2023-05-26T07:20:00.255Z,101605.38
2023-05-26T07:22:28.588Z,101601.03
2023-05-26T07:25:02.067Z,101597.78
2023-05-26T07:27:35.450Z,101603.09
2023-05-26T07:30:04.021Z,101599.09
2023-05-26T07:32:32.835Z,101591.66
2023-05-26T07:35:00.349Z,101600.06
2023-05-26T07:37:29.671Z,101601.75
2023-05-26T07:39:57.271Z,101596.78
2023-05-26T07:42:24.853Z,101598.34
2023-05-26T07:44:52.214Z,101595.56
2023-05-26T07:47:20.493Z,101605.25
2023-05-26T07:49:48.152Z,101606.38
2023-05-26T07:52:16.197Z,101608.03
2023-05-26T07:54:43.546Z,101601.97
2023-05-26T07:57:22.044Z,101601.09
2023-05-26T07:59:56.688Z,101589.47
2023-05-26T08:02:24.776Z,101595.84
2023-05-26T08:04:52.664Z,101591.44
2023-05-26T08:07:20.522Z,101587.50
2023-05-26T08:09:48.370Z,101593.38
2023-05-26T08:12:16.197Z,101592.03
2023-05-26T08:14:44.601Z,101596.59
2023-05-26T08:17:12.180Z,101589.78
2023-05-26T08:19:39.555Z,101589.28
2023-05-26T08:22:07.110Z,101582.22
2023-05-26T08:24:34.890Z,101593.06
2023-05-26T08:27:03.002Z,101578.94
2023-05-26T08:29:30.402Z,101583.94
2023-05-26T08:32:00.883Z,101587.28
2023-05-26T08:34:28.883Z,101587.72
2023-05-26T08:36:56.321Z,101580.25
2023-05-26T08:39:24.087Z,101582.06
2023-05-26T08:41:57.715Z,101574.59
2023-05-26T08:44:25.605Z,101578.38
2023-05-26T08:46:56.748Z,101578.66
2023-05-26T08:49:25.348Z,101578.38
2023-05-26T08:52:03.427Z,101578.88
2023-05-26T08:54:31.275Z,101571.69
2023-05-26T08:56:59.866Z,101571.16
2023-05-26T08:59:29.596Z,101566.19
2023-05-26T09:01:57.840Z,101559.59
2023-05-26T09:04:30.981Z,101559.94
2023-05-26T09:07:21.661Z,101564.56
2023-05-26T09:09:47.382Z,101562.28
2023-05-26T09:12:15.393Z,101572.84
2023-05-26T09:14:44.651Z,101565.69
2023-05-26T09:17:15.293Z,101568.66
2023-05-26T09:19:42.894Z,101565.91
2023-05-26T09:22:12.184Z,101567.84
2023-05-26T09:24:50.906Z,101568.25
2023-05-26T09:27:23.534Z,101563.50
2023-05-26T09:29:55.695Z,101562.19
2023-05-26T09:32:27.906Z,101554.50
2023-05-26T09:35:01.683Z,101552.06
2023-05-26T09:37:33.809Z,101567.31
2023-05-26T09:42:57.458Z,101559.34
2023-05-26T09:45:25.238Z,101548.28
2023-05-26T09:47:59.158Z,101553.81
2023-05-26T09:50:26.834Z,101545.53
2023-05-26T09:52:54.425Z,101547.16
2023-05-26T09:55:22.069Z,101548.63
2023-05-26T09:57:51.236Z,101550.81
2023-05-26T10:00:19.355Z,101548.09
2023-05-26T10:02:48.538Z,101534.41
2023-05-26T10:05:17.649Z,101543.34
2023-05-26T10:07:46.489Z,101539.75
2023-05-26T10:10:15.383Z,101537.78
2023-05-26T10:12:44.026Z,101533.66
2023-05-26T10:15:12.089Z,101535.59
2023-05-26T10:17:40.484Z,101536.09
2023-05-26T10:20:09.559Z,101539.19
2023-05-26T10:22:57.894Z,101533.63
2023-05-26T10:25:36.938Z,101533.84
2023-05-26T10:28:42.025Z,101529.44
2023-05-26T10:31:09.395Z,101521.53
2023-05-26T10:33:45.458Z,101525.09
2023-05-26T10:36:18.583Z,101523.31
2023-05-26T10:38:51.549Z,101518.44
2023-05-26T10:41:32.859Z,101507.34
2023-05-26T10:44:01.890Z,101512.69
2023-05-26T10:46:47.429Z,101507.91
2023-05-26T10:49:22.999Z,101500.72
2023-05-26T10:51:55.968Z,101503.81
2023-05-26T10:54:26.301Z,101491.84
2023-05-26T10:56:55.053Z,101485.69
2023-05-26T10:59:30.787Z,101481.59
2023-05-26T11:02:04.562Z,101478.97
2023-05-26T11:04:43.739Z,101478.13
2023-05-26T11:07:16.490Z,101478.91
2023-05-26T11:10:06.479Z,101474.03
2023-05-26T11:12:34.927Z,101475.56
2023-05-26T11:15:30.783Z,101475.63
2023-05-26T11:18:02.829Z,101474.47
2023-05-26T11:20:30.764Z,101472.72
2023-05-26T11:22:58.548Z,101467.84
2023-05-26T11:25:29.414Z,101471.97
2023-05-26T11:27:57.197Z,101460.06
2023-05-26T11:30:34.798Z,101460.91
2023-05-26T11:33:12.043Z,101450.03
2023-05-26T11:35:40.490Z,101449.59
2023-05-26T11:38:08.072Z,101456.97
2023-05-26T11:40:35.718Z,101457.16
2023-05-26T11:43:03.352Z,101455.00
2023-05-26T11:45:31.156Z,101443.44
2023-05-26T11:47:58.910Z,101446.50
2023-05-26T11:50:26.363Z,101442.44
2023-05-26T11:52:53.754Z,101435.22
2023-05-26T11:55:21.299Z,101432.47
2023-05-26T11:57:52.252Z,101433.34
2023-05-26T12:00:20.438Z,101433.78
2023-05-26T12:02:48.744Z,101432.13
2023-05-26T12:05:30.356Z,101422.56
2023-05-26T12:08:07.809Z,101424.72
2023-05-26T12:10:36.983Z,101429.16
2023-05-26T12:13:04.999Z,101428.47
2023-05-26T12:15:32.895Z,101422.50
2023-05-26T12:18:03.786Z,101419.06
2023-05-26T12:20:44.100Z,101420.75
2023-05-26T12:23:25.900Z,101419.72
2023-05-26T12:25:53.916Z,101423.31
2023-05-26T12:28:21.269Z,101414.28
2023-05-26T12:30:49.929Z,101412.38
2023-05-26T12:33:18.557Z,101406.50
2023-05-26T12:35:45.978Z,101403.34
2023-05-26T12:38:15.049Z,101402.28
2023-05-26T12:40:43.067Z,101390.91
2023-05-26T12:43:10.795Z,101390.47
2023-05-26T12:45:39.263Z,101391.69
2023-05-26T12:48:07.898Z,101394.44
2023-05-26T12:50:35.385Z,101389.41
2023-05-26T12:53:03.390Z,101391.19
2023-05-26T12:55:31.533Z,101382.25
2023-05-26T12:57:59.288Z,101379.06
2023-05-26T13:00:26.567Z,101376.44
2023-05-26T13:02:54.142Z,101393.81
2023-05-26T13:05:22.673Z,101378.81
2023-05-26T13:07:50.859Z,101371.88
2023-05-26T13:10:19.201Z,101374.09
2023-05-26T13:12:47.747Z,101374.25
2023-05-26T13:15:17.379Z,101377.69
2023-05-26T13:17:45.306Z,101371.78
2023-05-26T13:20:13.274Z,101370.56
2023-05-26T13:22:46.047Z,101366.38
2023-05-26T13:25:13.875Z,101369.78
2023-05-26T13:27:41.757Z,101353.81
2023-05-26T13:30:09.372Z,101360.13
2023-05-26T13:32:37.742Z,101348.22
2023-05-26T13:35:05.596Z,101332.50
2023-05-26T13:37:33.498Z,101339.19
2023-05-26T13:40:00.995Z,101337.19
2023-05-26T13:42:35.291Z,101333.66
2023-05-26T13:45:04.971Z,101321.94
2023-05-26T13:47:32.627Z,101325.19
2023-05-26T13:50:09.334Z,101316.50
2023-05-26T13:52:47.721Z,101319.81
2023-05-26T13:55:15.689Z,101315.34
2023-05-26T13:57:43.465Z,101317.63
2023-05-26T14:00:11.907Z,101313.69
2023-05-26T14:02:42.492Z,101306.88
2023-05-26T14:05:12.069Z,101311.03
2023-05-26T14:07:39.940Z,101310.06
2023-05-26T14:10:08.247Z,101311.94
2023-05-26T14:12:35.862Z,101302.72
2023-05-26T14:15:05.643Z,101310.53
2023-05-26T14:17:34.074Z,101300.09
2023-05-26T14:20:07.733Z,101304.47
2023-05-26T14:22:38.548Z,101297.06
2023-05-26T14:25:07.183Z,101296.25
2023-05-26T14:27:34.993Z,101288.94
2023-05-26T14:30:02.467Z,101285.66
2023-05-26T14:32:29.897Z,101294.13
2023-05-26T14:34:57.751Z,101295.66
2023-05-26T14:37:26.785Z,101286.50
2023-05-26T14:39:55.540Z,101282.06
2023-05-26T14:42:22.943Z,101273.22
2023-05-26T14:44:51.863Z,101270.31
2023-05-26T14:47:19.940Z,101269.91
2023-05-26T14:49:47.748Z,101278.72
2023-05-26T14:52:16.398Z,101273.25
2023-05-26T14:54:44.452Z,101284.66
2023-05-26T14:57:12.323Z,101282.22
2023-05-26T14:59:39.885Z,101283.16
2023-05-26T15:02:08.254Z,101281.53
2023-05-26T15:04:35.939Z,101282.25
2023-05-26T15:07:04.605Z,101276.78
2023-05-26T15:09:32.760Z,101278.41
2023-05-26T15:12:00.654Z,101278.06
2023-05-26T15:14:27.951Z,101274.25
2023-05-26T15:16:55.335Z,101263.50
2023-05-26T15:19:23.121Z,101258.00
2023-05-26T15:21:50.644Z,101260.84
2023-05-26T15:24:18.860Z,101255.97
2023-05-26T15:26:46.746Z,101253.06
2023-05-26T15:29:15.597Z,101244.53
2023-05-26T15:31:43.485Z,101244.75
2023-05-26T15:34:10.832Z,101250.97
2023-05-26T15:36:38.625Z,101247.66
2023-05-26T15:39:05.910Z,101242.88
2023-05-26T15:41:33.826Z,101245.34
2023-05-26T15:44:03.697Z,101244.81
2023-05-26T15:46:31.587Z,101239.91
2023-05-26T15:48:59.410Z,101239.81
2023-05-26T15:51:26.829Z,101243.59
2023-05-26T15:53:54.196Z,101242.91
2023-05-26T15:56:21.609Z,101242.91
2023-05-26T15:58:49.367Z,101240.41
2023-05-26T16:01:18.458Z,101235.69
2023-05-26T16:03:45.840Z,101215.41
2023-05-26T16:06:13.898Z,101214.81
2023-05-26T16:08:43.081Z,101219.88
2023-05-26T16:11:10.571Z,101205.63
2023-05-26T16:13:38.725Z,101214.84
2023-05-26T16:16:07.251Z,101202.59
2023-05-26T16:18:34.712Z,101208.63
2023-05-26T16:21:03.051Z,101196.75
2023-05-26T16:23:30.714Z,101193.09
2023-05-26T16:26:00.361Z,101191.53
2023-05-26T16:28:27.904Z,101189.19
2023-05-26T16:30:55.675Z,101191.91
2023-05-26T16:33:23.811Z,101186.72
2023-05-26T16:35:53.468Z,101183.59
2023-05-26T16:38:22.418Z,101176.63
2023-05-26T16:40:50.700Z,101175.78
2023-05-26T16:43:36.018Z,101173.88
2023-05-26T16:46:06.373Z,101179.34
2023-05-26T16:48:34.016Z,101176.31
2023-05-26T16:51:01.345Z,101172.00
2023-05-26T16:53:28.825Z,101177.03
2023-05-26T16:55:56.349Z,101177.03
2023-05-26T16:58:25.165Z,101170.66
2023-05-26T17:00:52.584Z,101171.94
2023-05-26T17:03:21.313Z,101166.03
2023-05-26T17:05:48.800Z,101163.09
2023-05-26T17:08:16.167Z,101163.41
2023-05-26T17:10:45.423Z,101153.66
2023-05-26T17:13:12.729Z,101160.28
2023-05-26T17:15:40.171Z,101150.06
2023-05-26T17:18:08.294Z,101158.38
2023-05-26T17:20:35.987Z,101165.53
2023-05-26T17:23:04.449Z,101157.59
2023-05-26T17:25:31.803Z,101156.31
2023-05-26T17:27:59.158Z,101160.53
2023-05-26T17:30:26.859Z,101160.81
2023-05-26T17:32:55.296Z,101158.88
2023-05-26T17:35:26.116Z,101159.50
2023-05-26T17:37:54.102Z,101152.91
2023-05-26T17:40:21.674Z,101167.81
2023-05-26T17:42:49.923Z,101167.19
2023-05-26T17:45:17.694Z,101167.56
2023-05-26T17:47:46.035Z,101173.47
2023-05-26T17:50:13.773Z,101171.47
2023-05-26T17:52:41.564Z,101166.81
2023-05-26T17:55:09.135Z,101166.69
2023-05-26T17:57:37.358Z,101170.34
2023-05-26T18:00:05.533Z,101169.97
2023-05-26T18:02:40.443Z,101167.31
2023-05-26T18:05:08.100Z,101170.91
2023-05-26T18:07:35.408Z,101172.00
2023-05-26T18:10:03.415Z,101170.72
2023-05-26T18:12:31.261Z,101172.22
2023-05-26T18:14:58.567Z,101176.91
2023-05-26T18:17:25.917Z,101176.19
2023-05-26T18:19:53.873Z,101177.16
2023-05-26T18:22:21.651Z,101179.00
2023-05-26T18:24:49.121Z,101177.16
2023-05-26T18:27:17.430Z,101178.53
2023-05-26T18:29:45.253Z,101178.06
2023-05-26T18:32:13.479Z,101180.03
2023-05-26T18:34:41.345Z,101171.66
2023-05-26T18:37:09.165Z,101170.00
2023-05-26T18:39:37.482Z,101173.75
2023-05-26T18:42:04.846Z,101171.06
2023-05-26T18:44:32.655Z,101172.19
2023-05-26T18:47:00.608Z,101185.66
2023-05-26T18:49:30.888Z,101182.31
2023-05-26T18:51:58.982Z,101186.66
2023-05-26T18:54:27.389Z,101188.34
2023-05-26T18:56:55.288Z,101193.31
2023-05-26T18:59:22.575Z,101194.69
2023-05-26T19:01:50.395Z,101197.09
2023-05-26T19:04:18.224Z,101191.84
2023-05-26T19:06:45.580Z,101185.66
2023-05-26T19:09:13.309Z,101185.06
2023-05-26T19:11:41.885Z,101184.84
2023-05-26T19:14:09.358Z,101187.00
2023-05-26T19:19:09.769Z,101193.84
2023-05-26T19:21:37.812Z,101192.22
2023-05-26T19:24:07.273Z,101194.78
2023-05-26T19:26:35.370Z,101195.97
2023-05-26T19:29:05.106Z,101205.25
2023-05-26T19:31:33.545Z,101199.84
2023-05-26T19:34:02.297Z,101209.63
2023-05-26T19:36:30.778Z,101214.41
2023-05-26T19:38:59.314Z,101217.56
2023-05-26T19:41:29.138Z,101213.47
2023-05-26T19:43:57.050Z,101228.16
2023-05-26T19:46:24.417Z,101227.13
2023-05-26T19:48:52.020Z,101229.00
2023-05-26T19:51:19.716Z,101228.41
2023-05-26T19:53:47.455Z,101229.78
2023-05-26T19:56:14.872Z,101237.06
2023-05-26T19:58:42.349Z,101234.06
2023-05-26T20:01:09.758Z,101237.75
2023-05-26T20:03:37.170Z,101243.03
2023-05-26T20:06:05.469Z,101248.28
2023-05-26T20:08:33.958Z,101248.31
2023-05-26T20:11:01.902Z,101247.44
2023-05-26T20:13:30.621Z,101248.22
2023-05-26T20:15:58.345Z,101254.00
2023-05-26T20:18:25.789Z,101256.69
2023-05-26T20:20:53.750Z,101257.91
2023-05-26T20:23:21.591Z,101261.16
2023-05-26T20:25:49.857Z,101260.16
2023-05-26T20:28:17.582Z,101266.31
2023-05-26T20:30:45.582Z,101266.94
2023-05-26T20:33:13.585Z,101271.13
2023-05-26T20:35:42.142Z,101272.75
2023-05-26T20:38:09.918Z,101264.72
2023-05-26T20:40:37.427Z,101273.88
2023-05-26T20:43:05.481Z,101269.72
2023-05-26T20:45:33.673Z,101274.75
2023-05-26T20:48:01.177Z,101277.25
2023-05-26T20:50:28.598Z,101281.66
2023-05-26T20:52:56.466Z,101280.28
2023-05-26T20:55:23.943Z,101275.84
2023-05-26T20:57:51.310Z,101281.97
2023-05-26T21:00:19.454Z,101286.69
2023-05-26T21:02:46.884Z,101285.84
2023-05-26T21:05:14.760Z,101301.69
2023-05-26T21:07:42.876Z,101300.56
2023-05-26T21:10:10.953Z,101304.69
2023-05-26T21:12:39.295Z,101311.84
2023-05-26T21:15:07.567Z,101305.50
2023-05-26T21:17:35.722Z,101306.34
2023-05-26T21:20:03.962Z,101310.13
2023-05-26T21:22:32.227Z,101314.56
2023-05-26T21:24:59.719Z,101313.44
2023-05-26T21:27:27.041Z,101315.69
2023-05-26T21:29:54.322Z,101320.97
2023-05-26T21:32:22.706Z,101312.63
2023-05-26T21:34:50.809Z,101321.72
2023-05-26T21:37:18.335Z,101318.94
2023-05-26T21:39:46.248Z,101318.25
2023-05-26T21:42:13.800Z,101319.97
2023-05-26T21:44:42.079Z,101321.88
2023-05-26T21:47:09.460Z,101319.47
2023-05-26T21:49:37.038Z,101319.69
2023-05-26T21:52:05.300Z,101324.38
2023-05-26T21:54:32.629Z,101329.31
2023-05-26T21:57:00.027Z,101321.22
2023-05-26T21:59:27.988Z,101311.09
2023-05-26T22:01:55.978Z,101320.31
2023-05-26T22:04:24.029Z,101326.91
2023-05-26T22:06:51.862Z,101331.06
2023-05-26T22:09:19.712Z,101327.59
2023-05-26T22:11:47.764Z,101325.84
2023-05-26T22:14:25.229Z,101326.03
2023-05-26T22:16:53.642Z,101323.63
2023-05-26T22:19:22.158Z,101329.78
2023-05-26T22:21:49.782Z,101332.69
2023-05-26T22:24:17.642Z,101328.13
2023-05-26T22:26:45.404Z,101318.22
2023-05-26T22:29:12.871Z,101319.50
2023-05-26T22:31:41.596Z,101325.41
2023-05-26T22:34:09.026Z,101324.22
2023-05-26T22:36:36.862Z,101323.03
2023-05-26T22:39:06.458Z,101320.88
2023-05-26T22:41:34.898Z,101322.38
2023-05-26T22:44:02.326Z,101328.22
2023-05-26T22:46:30.992Z,101329.28
2023-05-26T22:48:59.475Z,101326.44
2023-05-26T22:51:28.629Z,101330.53
2023-05-26T22:53:57.435Z,101322.03
2023-05-26T22:56:26.311Z,101327.03
2023-05-26T22:58:53.686Z,101318.13
2023-05-26T23:01:21.929Z,101321.22
2023-05-26T23:03:49.429Z,101321.88
2023-05-26T23:06:19.540Z,101325.81
2023-05-26T23:08:49.150Z,101322.28
2023-05-26T23:11:18.530Z,101325.91
2023-05-26T23:13:48.482Z,101329.75
2023-05-26T23:16:17.071Z,101327.09
2023-05-26T23:18:44.550Z,101311.47
2023-05-26T23:21:12.638Z,101317.97
2023-05-26T23:23:40.086Z,101319.03
2023-05-26T23:26:08.474Z,101318.13
2023-05-26T23:28:36.090Z,101322.22
2023-05-26T23:31:03.531Z,101315.63
2023-05-26T23:33:32.018Z,101320.09
2023-05-26T23:36:00.480Z,101315.16
2023-05-26T23:38:29.963Z,101320.66
2023-05-26T23:41:00.828Z,101319.91
2023-05-26T23:43:29.371Z,101326.91
2023-05-26T23:46:01.575Z,101329.16
2023-05-26T23:48:30.692Z,101340.28
2023-05-26T23:50:58.448Z,101343.66
2023-05-26T23:53:26.139Z,101337.66
2023-05-26T23:55:54.157Z,101341.97
2023-05-26T23:58:21.797Z,101346.63
